Isuzu Maru — JD3515 — position and weather

sailwx.info

Track history (hours):
 
Tides and Currents Weather Stations Pressure Air Temp Water Temp Dewpoint Dewpoint Depression Visibility Wind Speed Wind Dir Waves Ship Positions

Isuzu Maru

Last reported at 2017-Aug-30 09:46 UTC. Time now 2017-Sep-24 04:57 UTC.
Position N 34°37' E 134°56'.
Warning: this ship's position is 24 days out of date.

Length 74 m; draft 3.5 m.

Type: Tanker. MMSI: 431004619.

Date/timePositionNaut miles runAvg speedWind from/ knotsBaromVisibWave heightAir tempDewpointWater temp
2017-Aug-30 09:46N 34°37' E 134°56'412.7
2017-Aug-30 09:26N 34°37' E 135°02'513.0
2017-Aug-30 09:00N 34°36' E 135°08'713.8
2017-Aug-30 08:30N 34°36' E 135°16'612.7
2017-Aug-30 08:00N 34°36' E 135°24'2 2.4
2017-Aug-30 07:09N 34°35' E 135°26'0 0.0
2017-Aug-30 06:58N 34°35' E 135°26'0 0.0
2017-Aug-30 06:28N 34°35' E 135°26'0 0.0
2017-Aug-30 03:55N 34°35' E 135°26'2 4.4
2017-Aug-30 03:29N 34°36' E 135°24'612.0
2017-Aug-30 02:59N 34°36' E 135°17'612.1
2017-Aug-30 02:30N 34°35' E 135°10'712.8
2017-Aug-30 01:57N 34°37' E 135°02'  
2017-Aug-26 10:58N 34°36' E 134°55'711.0
2017-Aug-26 10:22N 34°36' E 135°03'411.0
2017-Aug-26 09:59N 34°36' E 135°08'612.6
2017-Aug-26 09:30N 34°36' E 135°16'612.6
2017-Aug-26 09:00N 34°36' E 135°23'3 0.8
2017-Aug-26 05:34N 34°34' E 135°26'0 1.7
2017-Aug-26 05:30N 34°34' E 135°26'4 9.0
2017-Aug-26 05:00N 34°36' E 135°21'713.2
2017-Aug-26 04:30N 34°35' E 135°13'713.6
2017-Aug-26 04:00N 34°35' E 135°04'  
2017-Aug-22 10:06N 34°36' E 134°54'216.2
2017-Aug-22 10:00N 34°36' E 134°56'714.5
2017-Aug-22 09:30N 34°36' E 135°05'713.3
2017-Aug-22 09:00N 34°36' E 135°13'612.7
2017-Aug-22 08:30N 34°36' E 135°20'5 9.4
2017-Aug-22 08:00N 34°35' E 135°26'0 0.0
2017-Aug-22 04:03N 34°35' E 135°26'1 1.2
2017-Aug-22 03:18N 34°35' E 135°25'2 1.2
2017-Aug-22 01:46N 34°36' E 135°23'3 9.6
2017-Aug-22 01:30N 34°35' E 135°20'612.6
2017-Aug-22 01:00N 34°30' E 135°14'2012.8
2017-Aug-21 23:29N 34°15' E 134°59'713.6
2017-Aug-21 22:59N 34°09' E 134°60'  
Track history (hours):
 
Tides and Currents Weather Stations Pressure Air Temp Water Temp Dewpoint Dewpoint Depression Visibility Wind Speed Wind Dir Waves Ship Positions

Isuzu Maru

Last reported at 2017-Aug-30 09:46 UTC. Time now 2017-Sep-24 04:57 UTC.
Position N 34°37' E 134°56'.
Warning: this ship's position is 24 days out of date.

Length 74 m; draft 3.5 m.

Type: Tanker. MMSI: 431004619.

Date/timePositionNaut miles runAvg speedWind from/ knotsBaromVisibWave heightAir tempDewpointWater temp
2017-Aug-30 09:46N 34°37' E 134°56'412.7
2017-Aug-30 09:26N 34°37' E 135°02'513.0
2017-Aug-30 09:00N 34°36' E 135°08'713.8
2017-Aug-30 08:30N 34°36' E 135°16'612.7
2017-Aug-30 08:00N 34°36' E 135°24'2 2.4
2017-Aug-30 07:09N 34°35' E 135°26'0 0.0
2017-Aug-30 06:58N 34°35' E 135°26'0 0.0
2017-Aug-30 06:28N 34°35' E 135°26'0 0.0
2017-Aug-30 03:55N 34°35' E 135°26'2 4.4
2017-Aug-30 03:29N 34°36' E 135°24'612.0
2017-Aug-30 02:59N 34°36' E 135°17'612.1
2017-Aug-30 02:30N 34°35' E 135°10'712.8
2017-Aug-30 01:57N 34°37' E 135°02'  
2017-Aug-26 10:58N 34°36' E 134°55'711.0
2017-Aug-26 10:22N 34°36' E 135°03'411.0
2017-Aug-26 09:59N 34°36' E 135°08'612.6
2017-Aug-26 09:30N 34°36' E 135°16'612.6
2017-Aug-26 09:00N 34°36' E 135°23'3 0.8
2017-Aug-26 05:34N 34°34' E 135°26'0 1.7
2017-Aug-26 05:30N 34°34' E 135°26'4 9.0
2017-Aug-26 05:00N 34°36' E 135°21'713.2
2017-Aug-26 04:30N 34°35' E 135°13'713.6
2017-Aug-26 04:00N 34°35' E 135°04'  
2017-Aug-22 10:06N 34°36' E 134°54'216.2
2017-Aug-22 10:00N 34°36' E 134°56'714.5
2017-Aug-22 09:30N 34°36' E 135°05'713.3
2017-Aug-22 09:00N 34°36' E 135°13'612.7
2017-Aug-22 08:30N 34°36' E 135°20'5 9.4
2017-Aug-22 08:00N 34°35' E 135°26'0 0.0
2017-Aug-22 04:03N 34°35' E 135°26'1 1.2
2017-Aug-22 03:18N 34°35' E 135°25'2 1.2
2017-Aug-22 01:46N 34°36' E 135°23'3 9.6
2017-Aug-22 01:30N 34°35' E 135°20'612.6
2017-Aug-22 01:00N 34°30' E 135°14'2012.8
2017-Aug-21 23:29N 34°15' E 134°59'713.6
2017-Aug-21 22:59N 34°09' E 134°60'  

Dump ship's entire track history